Portada
METAR-TAF:

METAR-TAF

Aeroports :

Àstrakhan, Rússia

latitud: 46-17N, longitud: 048-00-23E, altitud: 0 m

Observació

L'informe es va fer fa 37 minuts, a les 08:30 UTC
Vent 6 kt del Nord, variant entre Oest/Nord-Oest i Est/Nord-Est
Temperatura 27°C
Humitat 28%
Pressió 1020 hPa
Visibilitat 10 km o més
sense núvols per sota de 1500 mi sense presència de cumulonimbus.

METAR: URWA 060830Z 36003MPS 300V060 CAVOK 27/07 Q1020 R09/010070 NOSIG RMK QFE767/1023

Hora: 13:07 (09:07 UTC)

Pronòstic

L'informe es va fer fa 1 hora i 7 minuts, a les 08:00 UTC
Pronòstic vàlid del 06 a les 09 UTC al 06 a les 18 UTC
Vent 6 kt del Nord-Oest amb ràfegues de 17 kt
Visibilitat 10 km o més
Núvols disperses a una alçada de 4000 ft
Temporalment
l' 06 a les 09 UTC al 06 a les 16 UTC
Vent 12 kt del Nord/Nord-Oest amb ràfegues de 21 kt

TAF: URWA 060800Z 0609/0618 32003G09MPS 9999 SCT040 TEMPO 0609/0616 34006G11MPS

Observacions i pronòstics meteorològics de més de 4000 aeroports (METAR i TAF).

Les estacions disponibles són els punts grocs i vermells al mapa.

Posi el ratolí al punt desitjat per veure el nom de l'estació.

Feu clic per veure les observacions i els pronòstics meteorològics.

Per canviar el mapa: feu clic els botons verds amb una creu de color negre per apropar; al botó verd amb un guió per allunyar la imatge; o en les fletxes verdes per a mapes adjacents.


METAR-TAF: